nws-alerts: Checking more than four warning/county codes can delay the loading of your pages. You should use a cron job to get the data.
EllijayWeather Historical Data
Daily Summary for April 02, 2019 Units:  English    Metric   Both
Daily Weekly Monthly Yearly
  High: Low: Average:
Temperature: 59.0 °F 38.0 °F 49.2 °F
Dew Point: 35.0 °F 22.0 °F 28.6 °F
Humidity: 82% 36% 46%
Wind Speed: 8mph 0mph 1.5mph
Wind Gust: 11mph - -
Wind- - SSW
Pressure: 30.3 in 30.1 in -
Precipitation: 0.000 in    
 
 
Tabular Data for April 02, 2019
Time Temperature Dew Point Pressure Wind Wind Speed Wind Gust Humidity Rainfall Rate (Hourly)
00:04 45.0 °F 26.0 °F 30.2 in SE 2 mph 5 mph 48% 0.000 in
00:09 46.0 °F 25.0 °F 30.2 in SE 1 mph 4 mph 43% 0.000 in
00:14 47.0 °F 25.0 °F 30.2 in SE 4 mph 6 mph 43% 0.000 in
00:19 48.0 °F 26.0 °F 30.2 in SE 2 mph 4 mph 42% 0.000 in
00:24 48.0 °F 24.0 °F 30.2 in SSE 4 mph 5 mph 40% 0.000 in
00:29 48.0 °F 24.0 °F 30.2 in SE 4 mph 5 mph 39% 0.000 in
00:34 48.0 °F 24.0 °F 30.2 in SE 7 mph 8 mph 39% 0.000 in
00:39 48.0 °F 24.0 °F 30.2 in SE 2 mph 6 mph 38% 0.000 in
00:44 48.0 °F 24.0 °F 30.2 in SSE 1 mph 4 mph 38% 0.000 in
00:49 48.0 °F 23.0 °F 30.2 in SE 1 mph 2 mph 37% 0.000 in
00:54 48.0 °F 24.0 °F 30.2 in Calm     39% 0.000 in
00:59 48.0 °F 24.0 °F 30.2 in Calm   1 mph 39% 0.000 in
01:04 48.0 °F 24.0 °F 30.2 in SE 5 mph 5 mph 39% 0.000 in
01:09 48.0 °F 23.0 °F 30.2 in Calm     37% 0.000 in
01:14 48.0 °F 24.0 °F 30.2 in Calm   2 mph 39% 0.000 in
01:19 48.0 °F 23.0 °F 30.2 in Calm     37% 0.000 in
01:24 48.0 °F 23.0 °F 30.3 in SE 1 mph 2 mph 38% 0.000 in
01:29 48.0 °F 23.0 °F 30.2 in SE 1 mph 2 mph 38% 0.000 in
01:34 48.0 °F 24.0 °F 30.2 in Calm   1 mph 39% 0.000 in
01:39 48.0 °F 24.0 °F 30.2 in Calm   1 mph 39% 0.000 in
01:44 48.0 °F 23.0 °F 30.2 in SE 1 mph 4 mph 38% 0.000 in
01:49 47.0 °F 23.0 °F 30.2 in SE 1 mph 4 mph 38% 0.000 in
01:54 47.0 °F 23.0 °F 30.2 in Calm   1 mph 38% 0.000 in
01:59 47.0 °F 23.0 °F 30.2 in Calm     39% 0.000 in
02:04 47.0 °F 23.0 °F 30.2 in SE 2 mph 4 mph 39% 0.000 in
02:09 47.0 °F 23.0 °F 30.2 in SE 1 mph 1 mph 39% 0.000 in
02:14 47.0 °F 24.0 °F 30.2 in SE 1 mph 4 mph 40% 0.000 in
02:19 47.0 °F 24.0 °F 30.2 in Calm   4 mph 40% 0.000 in
02:24 47.0 °F 24.0 °F 30.2 in SE 4 mph 4 mph 40% 0.000 in
02:29 46.0 °F 24.0 °F 30.2 in SE 2 mph 4 mph 41% 0.000 in
02:34 46.0 °F 24.0 °F 30.2 in SE 1 mph 4 mph 41% 0.000 in
02:39 46.0 °F 23.0 °F 30.2 in ESE 2 mph 6 mph 39% 0.000 in
02:44 47.0 °F 24.0 °F 30.2 in ESE 4 mph 6 mph 40% 0.000 in
02:49 47.0 °F 24.0 °F 30.2 in SE 4 mph 6 mph 40% 0.000 in
02:54 47.0 °F 23.0 °F 30.2 in SE 4 mph 5 mph 39% 0.000 in
02:59 47.0 °F 23.0 °F 30.2 in ESE 2 mph 4 mph 39% 0.000 in
03:04 47.0 °F 24.0 °F 30.2 in ESE 1 mph 2 mph 40% 0.000 in
03:09 47.0 °F 23.0 °F 30.2 in East 2 mph 5 mph 39% 0.000 in
03:14 47.0 °F 23.0 °F 30.2 in Calm   2 mph 39% 0.000 in
03:19 46.0 °F 22.0 °F 30.2 in SE 6 mph 7 mph 38% 0.000 in
03:24 47.0 °F 23.0 °F 30.2 in Calm   5 mph 39% 0.000 in
03:29 47.0 °F 23.0 °F 30.2 in ESE 4 mph 6 mph 40% 0.000 in
03:34 46.0 °F 23.0 °F 30.2 in ESE 1 mph 4 mph 40% 0.000 in
03:39 46.0 °F 23.0 °F 30.2 in ESE 2 mph 4 mph 40% 0.000 in
03:44 46.0 °F 23.0 °F 30.2 in Calm     40% 0.000 in
03:49 46.0 °F 23.0 °F 30.2 in SE 4 mph 4 mph 40% 0.000 in
03:54 46.0 °F 23.0 °F 30.2 in SSE 4 mph 5 mph 40% 0.000 in
03:59 46.0 °F 23.0 °F 30.2 in ESE 2 mph 5 mph 40% 0.000 in
04:04 46.0 °F 23.0 °F 30.2 in ESE 1 mph 2 mph 40% 0.000 in
04:09 46.0 °F 23.0 °F 30.2 in SE 4 mph 5 mph 40% 0.000 in
04:14 46.0 °F 23.0 °F 30.2 in SE 4 mph 4 mph 40% 0.000 in
04:19 46.0 °F 23.0 °F 30.2 in ESE 1 mph 2 mph 40% 0.000 in
04:24 46.0 °F 23.0 °F 30.2 in Calm   4 mph 40% 0.000 in
04:29 46.0 °F 23.0 °F 30.2 in SE 2 mph 2 mph 39% 0.000 in
04:34 46.0 °F 24.0 °F 30.2 in Calm     41% 0.000 in
04:39 46.0 °F 23.0 °F 30.2 in Calm   2 mph 40% 0.000 in
04:44 46.0 °F 24.0 °F 30.2 in Calm   1 mph 41% 0.000 in
04:49 46.0 °F 23.0 °F 30.2 in Calm     41% 0.000 in
04:54 46.0 °F 23.0 °F 30.2 in SE 1 mph 1 mph 41% 0.000 in
04:59 46.0 °F 23.0 °F 30.2 in Calm   1 mph 41% 0.000 in
05:04 46.0 °F 24.0 °F 30.2 in Calm     42% 0.000 in
05:09 46.0 °F 24.0 °F 30.2 in SE 2 mph 2 mph 42% 0.000 in
05:14 45.0 °F 23.0 °F 30.2 in Calm   1 mph 41% 0.000 in
05:19 45.0 °F 24.0 °F 30.2 in ESE 1 mph 1 mph 42% 0.000 in
05:24 45.0 °F 23.0 °F 30.2 in Calm   2 mph 40% 0.000 in
05:29 45.0 °F 24.0 °F 30.2 in Calm     42% 0.000 in
05:34 45.0 °F 23.0 °F 30.2 in ESE 1 mph 2 mph 41% 0.000 in
05:39 45.0 °F 23.0 °F 30.2 in Calm   1 mph 41% 0.000 in
05:44 45.0 °F 24.0 °F 30.2 in Calm     42% 0.000 in
05:49 45.0 °F 23.0 °F 30.2 in Calm   1 mph 42% 0.000 in
05:54 45.0 °F 23.0 °F 30.2 in Calm   4 mph 41% 0.000 in
05:59 45.0 °F 23.0 °F 30.2 in Calm   1 mph 41% 0.000 in
06:04 45.0 °F 24.0 °F 30.2 in Calm   1 mph 43% 0.000 in
06:09 45.0 °F 24.0 °F 30.2 in Calm   1 mph 43% 0.000 in
06:14 45.0 °F 24.0 °F 30.2 in Calm   1 mph 43% 0.000 in
06:19 45.0 °F 25.0 °F 30.2 in SE 1 mph 1 mph 46% 0.000 in
06:24 45.0 °F 23.0 °F 30.2 in Calm   1 mph 42% 0.000 in
06:29 45.0 °F 23.0 °F 30.2 in Calm     42% 0.000 in
06:34 45.0 °F 24.0 °F 30.2 in Calm     43% 0.000 in
06:39 45.0 °F 24.0 °F 30.2 in Calm     43% 0.000 in
06:44 45.0 °F 23.0 °F 30.2 in Calm     42% 0.000 in
06:49 45.0 °F 24.0 °F 30.2 in Calm     44% 0.000 in
06:54 45.0 °F 24.0 °F 30.2 in Calm     44% 0.000 in
06:59 45.0 °F 24.0 °F 30.2 in Calm   1 mph 43% 0.000 in
07:04 45.0 °F 24.0 °F 30.2 in Calm     43% 0.000 in
07:09 45.0 °F 23.0 °F 30.2 in Calm   1 mph 42% 0.000 in
07:14 45.0 °F 24.0 °F 30.2 in Calm   1 mph 43% 0.000 in
07:19 45.0 °F 24.0 °F 30.2 in Calm     43% 0.000 in
07:24 45.0 °F 24.0 °F 30.2 in Calm   2 mph 43% 0.000 in
07:29 45.0 °F 24.0 °F 30.2 in Calm     44% 0.000 in
07:34 45.0 °F 24.0 °F 30.2 in Calm     43% 0.000 in
07:39 45.0 °F 24.0 °F 30.2 in SE 2 mph 2 mph 43% 0.000 in
07:44 45.0 °F 24.0 °F 30.2 in Calm     44% 0.000 in
07:49 45.0 °F 24.0 °F 30.2 in Calm     44% 0.000 in
07:54 45.0 °F 24.0 °F 30.2 in Calm     44% 0.000 in
07:59 45.0 °F 25.0 °F 30.2 in Calm     45% 0.000 in
08:04 45.0 °F 25.0 °F 30.2 in Calm     45% 0.000 in
08:09 45.0 °F 26.0 °F 30.2 in Calm     47% 0.000 in
08:14 45.0 °F 26.0 °F 30.2 in Calm     47% 0.000 in
08:19 45.0 °F 26.0 °F 30.2 in Calm     47% 0.000 in
08:24 45.0 °F 26.0 °F 30.2 in Calm     49% 0.000 in
08:29 44.0 °F 28.0 °F 30.2 in Calm     51% 0.000 in
08:34 44.0 °F 28.0 °F 30.2 in Calm     51% 0.000 in
08:39 44.0 °F 28.0 °F 30.2 in Calm     51% 0.000 in
08:44 44.0 °F 26.0 °F 30.2 in Calm     49% 0.000 in
08:49 44.0 °F 26.0 °F 30.2 in Calm     48% 0.000 in
08:54 45.0 °F 26.0 °F 30.2 in Calm     47% 0.000 in
08:59 45.0 °F 26.0 °F 30.2 in Calm     48% 0.000 in
09:04 45.0 °F 26.0 °F 30.2 in SE 1 mph 1 mph 46% 0.000 in
09:09 46.0 °F 25.0 °F 30.2 in SE 2 mph 4 mph 44% 0.000 in
09:14 46.0 °F 25.0 °F 30.2 in Calm   1 mph 44% 0.000 in
09:19 46.0 °F 24.0 °F 30.2 in Calm   1 mph 43% 0.000 in
09:24 46.0 °F 25.0 °F 30.2 in SE 1 mph 1 mph 44% 0.000 in
09:29 46.0 °F 25.0 °F 30.2 in SE 1 mph 1 mph 44% 0.000 in
09:34 46.0 °F 24.0 °F 30.2 in SE 4 mph 6 mph 43% 0.000 in
09:39 46.0 °F 23.0 °F 30.2 in SE 1 mph 4 mph 41% 0.000 in
09:44 46.0 °F 24.0 °F 30.2 in SE 2 mph 2 mph 43% 0.000 in
09:49 46.0 °F 24.0 °F 30.2 in SE 1 mph 2 mph 42% 0.000 in
09:54 46.0 °F 24.0 °F 30.2 in SE 2 mph 2 mph 42% 0.000 in
09:59 46.0 °F 24.0 °F 30.2 in SE 2 mph 4 mph 42% 0.000 in
10:04 46.0 °F 24.0 °F 30.2 in SE 1 mph 2 mph 41% 0.000 in
10:09 46.0 °F 24.0 °F 30.2 in ESE 1 mph 4 mph 41% 0.000 in
10:14 46.0 °F 24.0 °F 30.2 in Calm   4 mph 41% 0.000 in
10:19 46.0 °F 24.0 °F 30.2 in ESE 1 mph 2 mph 42% 0.000 in
10:24 46.0 °F 25.0 °F 30.2 in Calm   1 mph 43% 0.000 in
10:29 46.0 °F 24.0 °F 30.2 in Calm   2 mph 42% 0.000 in
10:34 47.0 °F 25.0 °F 30.2 in Calm   1 mph 42% 0.000 in
10:39 47.0 °F 25.0 °F 30.2 in SE 7 mph 7 mph 42% 0.000 in
10:44 48.0 °F 25.0 °F 30.2 in SE 2 mph 7 mph 41% 0.000 in
10:49 48.0 °F 26.0 °F 30.2 in SE 1 mph 2 mph 42% 0.000 in
10:54 49.0 °F 27.0 °F 30.2 in SE 1 mph 2 mph 42% 0.000 in
10:59 49.0 °F 26.0 °F 30.2 in ESE 1 mph 5 mph 41% 0.000 in
11:04 49.0 °F 25.0 °F 30.2 in ESE 1 mph 1 mph 39% 0.000 in
11:09 49.0 °F 26.0 °F 30.2 in East 4 mph 4 mph 40% 0.000 in
11:14 49.0 °F 25.0 °F 30.2 in North 1 mph 3 mph 39% 0.000 in
11:19 49.0 °F 26.0 °F 30.2 in NW 1 mph 2 mph 42% 0.000 in
11:24 49.0 °F 25.0 °F 30.2 in NNE 2 mph 2 mph 40% 0.000 in
11:29 49.0 °F 25.0 °F 30.2 in NNE 1 mph 3 mph 39% 0.000 in
11:34 50.0 °F 26.0 °F 30.2 in ESE 2 mph 4 mph 40% 0.000 in
11:39 50.0 °F 25.0 °F 30.2 in ESE 2 mph 4 mph 38% 0.000 in
11:44 51.0 °F 27.0 °F 30.2 in NE 1 mph 2 mph 40% 0.000 in
11:49 51.0 °F 27.0 °F 30.2 in NE 1 mph 1 mph 39% 0.000 in
11:54 51.0 °F 27.0 °F 30.2 in Calm     38% 0.000 in
11:59 51.0 °F 27.0 °F 30.2 in Calm     39% 0.000 in
12:04 51.0 °F 27.0 °F 30.2 in Calm   1 mph 38% 0.000 in
12:09 51.0 °F 27.0 °F 30.2 in Calm   1 mph 39% 0.000 in
12:14 52.0 °F 28.0 °F 30.2 in ESE 4 mph 4 mph 39% 0.000 in
12:19 52.0 °F 28.0 °F 30.2 in ESE 5 mph 5 mph 38% 0.000 in
12:24 53.0 °F 28.0 °F 30.2 in ESE 1 mph 2 mph 38% 0.000 in
12:29 53.0 °F 27.0 °F 30.2 in NW 3 mph 4 mph 37% 0.000 in
12:34 53.0 °F 28.0 °F 30.2 in NW 1 mph 2 mph 38% 0.000 in
12:39 54.0 °F 30.0 °F 30.2 in NNW 1 mph 2 mph 39% 0.000 in
12:44 54.0 °F 29.0 °F 30.2 in Calm   1 mph 38% 0.000 in
12:49 54.0 °F 31.0 °F 30.2 in ESE 5 mph 5 mph 40% 0.000 in
12:54 55.0 °F 31.0 °F 30.2 in SE 2 mph 4 mph 40% 0.000 in
12:59 55.0 °F 31.0 °F 30.2 in East 4 mph 4 mph 40% 0.000 in
13:04 55.0 °F 31.0 °F 30.2 in NW 3 mph 3 mph 40% 0.000 in
13:09 56.0 °F 32.0 °F 30.2 in NNW 2 mph 6 mph 41% 0.000 in
13:14 56.0 °F 32.0 °F 30.2 in North 1 mph 1 mph 40% 0.000 in
13:19 56.0 °F 31.0 °F 30.2 in NW 4 mph 4 mph 38% 0.000 in
13:24 56.0 °F 30.0 °F 30.2 in South 1 mph 2 mph 37% 0.000 in
13:29 56.0 °F 31.0 °F 30.2 in East 1 mph 4 mph 38% 0.000 in
13:34 56.0 °F 30.0 °F 30.2 in SE 4 mph 5 mph 37% 0.000 in
13:39 56.0 °F 30.0 °F 30.2 in WNW 4 mph 5 mph 37% 0.000 in
13:44 56.0 °F 31.0 °F 30.2 in NW 4 mph 5 mph 38% 0.000 in
13:49 56.0 °F 31.0 °F 30.2 in WNW 2 mph 5 mph 38% 0.000 in
13:54 56.0 °F 30.0 °F 30.2 in WNW 3 mph 4 mph 37% 0.000 in
13:59 56.0 °F 31.0 °F 30.2 in NNW 1 mph 4 mph 39% 0.000 in
14:04 57.0 °F 31.0 °F 30.2 in North 4 mph 4 mph 38% 0.000 in
14:09 57.0 °F 32.0 °F 30.2 in NW 5 mph 8 mph 38% 0.000 in
14:14 58.0 °F 31.0 °F 30.2 in West 4 mph 4 mph 36% 0.000 in
14:19 58.0 °F 31.0 °F 30.2 in WNW 4 mph 6 mph 36% 0.000 in
14:24 58.0 °F 31.0 °F 30.2 in ESE 4 mph 5 mph 36% 0.000 in
14:29 58.0 °F 32.0 °F 30.2 in ENE 5 mph 6 mph 37% 0.000 in
14:34 58.0 °F 31.0 °F 30.2 in East 5 mph 6 mph 36% 0.000 in
14:39 58.0 °F 31.0 °F 30.2 in NW 3 mph 4 mph 36% 0.000 in
14:44 58.0 °F 32.0 °F 30.2 in North 3 mph 4 mph 37% 0.000 in
14:49 58.0 °F 31.0 °F 30.2 in NNE 5 mph 5 mph 37% 0.000 in
14:54 57.0 °F 31.0 °F 30.2 in WNW 4 mph 6 mph 37% 0.000 in
14:59 57.0 °F 31.0 °F 30.2 in NW 5 mph 8 mph 37% 0.000 in
15:04 57.0 °F 32.0 °F 30.2 in NW 3 mph 8 mph 38% 0.000 in
15:09 57.0 °F 32.0 °F 30.2 in NW 2 mph 3 mph 38% 0.000 in
15:14 58.0 °F 32.0 °F 30.2 in NNW 8 mph 8 mph 38% 0.000 in
15:19 58.0 °F 32.0 °F 30.2 in WNW 3 mph 11 mph 37% 0.000 in
15:24 57.0 °F 32.0 °F 30.2 in NNE 5 mph 7 mph 38% 0.000 in
15:29 58.0 °F 32.0 °F 30.2 in NNW 7 mph 7 mph 38% 0.000 in
15:34 58.0 °F 33.0 °F 30.2 in NNW 8 mph 8 mph 38% 0.000 in
15:39 59.0 °F 33.0 °F 30.2 in NE 2 mph 5 mph 37% 0.000 in
15:44 59.0 °F 33.0 °F 30.1 in WSW 2 mph 3 mph 37% 0.000 in
15:49 59.0 °F 32.0 °F 30.1 in North 2 mph 2 mph 37% 0.000 in
15:54 58.0 °F 33.0 °F 30.1 in WNW 4 mph 4 mph 39% 0.000 in
15:59 58.0 °F 33.0 °F 30.1 in WNW 3 mph 6 mph 39% 0.000 in
16:04 58.0 °F 33.0 °F 30.2 in WNW 3 mph 6 mph 38% 0.000 in
16:09 58.0 °F 33.0 °F 30.2 in North 3 mph 4 mph 38% 0.000 in
16:14 58.0 °F 34.0 °F 30.2 in NW 2 mph 4 mph 40% 0.000 in
16:19 58.0 °F 33.0 °F 30.2 in NE 1 mph 4 mph 40% 0.000 in
16:24 58.0 °F 33.0 °F 30.2 in WNW 6 mph 11 mph 39% 0.000 in
16:29 57.0 °F 33.0 °F 30.2 in NNW 4 mph 6 mph 40% 0.000 in
16:34 57.0 °F 33.0 °F 30.2 in NNW 3 mph 5 mph 39% 0.000 in
16:39 57.0 °F 33.0 °F 30.2 in WNW 4 mph 6 mph 40% 0.000 in
16:44 57.0 °F 33.0 °F 30.2 in NNW 6 mph 9 mph 40% 0.000 in
16:49 57.0 °F 33.0 °F 30.2 in WNW 4 mph 6 mph 40% 0.000 in
16:54 57.0 °F 34.0 °F 30.2 in NNE 2 mph 7 mph 41% 0.000 in
16:59 57.0 °F 33.0 °F 30.1 in NW 4 mph 4 mph 41% 0.000 in
17:04 57.0 °F 34.0 °F 30.1 in WNW 3 mph 3 mph 42% 0.000 in
17:09 57.0 °F 33.0 °F 30.1 in NNE 2 mph 3 mph 41% 0.000 in
17:14 57.0 °F 34.0 °F 30.1 in NW 1 mph 2 mph 42% 0.000 in
17:19 57.0 °F 35.0 °F 30.1 in NW 5 mph 8 mph 44% 0.000 in
17:24 57.0 °F 34.0 °F 30.2 in West 2 mph 6 mph 43% 0.000 in
17:29 56.0 °F 34.0 °F 30.1 in NW 6 mph 10 mph 43% 0.000 in
17:34 56.0 °F 34.0 °F 30.2 in WNW 3 mph 10 mph 43% 0.000 in
17:39 56.0 °F 34.0 °F 30.2 in NNW 4 mph 6 mph 43% 0.000 in
17:44 56.0 °F 34.0 °F 30.2 in NW 5 mph 6 mph 44% 0.000 in
17:49 56.0 °F 34.0 °F 30.2 in NW 6 mph 7 mph 44% 0.000 in
17:54 56.0 °F 34.0 °F 30.2 in NW 3 mph 7 mph 43% 0.000 in
17:59 56.0 °F 34.0 °F 30.2 in WNW 6 mph 6 mph 44% 0.000 in
18:04 56.0 °F 34.0 °F 30.2 in NW 1 mph 3 mph 44% 0.000 in
18:09 56.0 °F 35.0 °F 30.2 in NW 3 mph 5 mph 45% 0.000 in
18:14 56.0 °F 34.0 °F 30.2 in NW 2 mph 2 mph 45% 0.000 in
18:19 55.0 °F 35.0 °F 30.2 in WSW 3 mph 8 mph 46% 0.000 in
18:24 55.0 °F 35.0 °F 30.2 in WNW 1 mph 1 mph 46% 0.000 in
18:29 55.0 °F 35.0 °F 30.2 in Calm     46% 0.000 in
18:34 55.0 °F 35.0 °F 30.2 in North 1 mph 3 mph 46% 0.000 in
18:39 55.0 °F 35.0 °F 30.2 in Calm   1 mph 46% 0.000 in
18:44 55.0 °F 35.0 °F 30.2 in WNW 2 mph 3 mph 47% 0.000 in
18:49 55.0 °F 35.0 °F 30.2 in NW 2 mph 3 mph 48% 0.000 in
18:54 55.0 °F 35.0 °F 30.2 in Calm     47% 0.000 in
18:59 54.0 °F 35.0 °F 30.2 in Calm     47% 0.000 in
19:04 54.0 °F 34.0 °F 30.2 in NW 5 mph 6 mph 46% 0.000 in
19:09 54.0 °F 34.0 °F 30.2 in NW 6 mph 6 mph 47% 0.000 in
19:14 54.0 °F 34.0 °F 30.2 in Calm   3 mph 47% 0.000 in
19:19 54.0 °F 34.0 °F 30.2 in NW 5 mph 6 mph 47% 0.000 in
19:24 54.0 °F 34.0 °F 30.2 in Calm   6 mph 46% 0.000 in
19:29 54.0 °F 34.0 °F 30.2 in Calm   1 mph 46% 0.000 in
19:34 54.0 °F 34.0 °F 30.2 in WNW 3 mph 6 mph 47% 0.000 in
19:39 54.0 °F 34.0 °F 30.2 in ENE 1 mph 1 mph 48% 0.000 in
19:44 53.0 °F 35.0 °F 30.2 in Calm     49% 0.000 in
19:49 53.0 °F 35.0 °F 30.2 in Calm     49% 0.000 in
19:54 53.0 °F 35.0 °F 30.2 in Calm     51% 0.000 in
19:59 53.0 °F 35.0 °F 30.2 in Calm     51% 0.000 in
20:04 52.0 °F 35.0 °F 30.2 in Calm     52% 0.000 in
20:09 52.0 °F 35.0 °F 30.2 in Calm     53% 0.000 in
20:14 51.0 °F 35.0 °F 30.2 in Calm     54% 0.000 in
20:19 51.0 °F 35.0 °F 30.2 in Calm     54% 0.000 in
20:24 51.0 °F 35.0 °F 30.2 in Calm     55% 0.000 in
20:29 50.0 °F 35.0 °F 30.2 in Calm     56% 0.000 in
20:34 50.0 °F 35.0 °F 30.2 in Calm     58% 0.000 in
20:39 49.0 °F 35.0 °F 30.2 in Calm     58% 0.000 in
20:44 49.0 °F 35.0 °F 30.2 in Calm     59% 0.000 in
20:49 48.0 °F 35.0 °F 30.2 in Calm     60% 0.000 in
20:54 48.0 °F 35.0 °F 30.2 in Calm     62% 0.000 in
20:59 47.0 °F 35.0 °F 30.2 in Calm     63% 0.000 in
21:04 47.0 °F 35.0 °F 30.2 in Calm     63% 0.000 in
21:09 47.0 °F 35.0 °F 30.2 in Calm     65% 0.000 in
21:14 46.0 °F 35.0 °F 30.2 in Calm     65% 0.000 in
21:19 46.0 °F 35.0 °F 30.2 in Calm     65% 0.000 in
21:24 45.0 °F 35.0 °F 30.2 in Calm     66% 0.000 in
21:29 45.0 °F 35.0 °F 30.2 in Calm     66% 0.000 in
21:34 45.0 °F 35.0 °F 30.2 in Calm     67% 0.000 in
21:39 44.0 °F 34.0 °F 30.2 in Calm     68% 0.000 in
21:44 44.0 °F 34.0 °F 30.2 in Calm     68% 0.000 in
21:49 44.0 °F 34.0 °F 30.2 in Calm     69% 0.000 in
21:54 44.0 °F 34.0 °F 30.2 in Calm     70% 0.000 in
21:59 43.0 °F 34.0 °F 30.2 in Calm     70% 0.000 in
22:04 43.0 °F 34.0 °F 30.2 in Calm     71% 0.000 in
22:09 43.0 °F 34.0 °F 30.2 in Calm     72% 0.000 in
22:14 42.0 °F 34.0 °F 30.2 in Calm     73% 0.000 in
22:19 42.0 °F 34.0 °F 30.2 in Calm     73% 0.000 in
22:24 42.0 °F 34.0 °F 30.2 in Calm     74% 0.000 in
22:29 42.0 °F 34.0 °F 30.2 in Calm     74% 0.000 in
22:34 42.0 °F 34.0 °F 30.2 in Calm     74% 0.000 in
22:39 41.0 °F 34.0 °F 30.2 in Calm     75% 0.000 in
22:44 41.0 °F 34.0 °F 30.2 in Calm     76% 0.000 in
22:49 41.0 °F 34.0 °F 30.2 in Calm     77% 0.000 in
22:54 41.0 °F 34.0 °F 30.2 in Calm     77% 0.000 in
22:59 41.0 °F 34.0 °F 30.2 in Calm     77% 0.000 in
23:04 40.0 °F 34.0 °F 30.2 in Calm     78% 0.000 in
23:09 40.0 °F 34.0 °F 30.2 in Calm     78% 0.000 in
23:14 40.0 °F 34.0 °F 30.2 in Calm     79% 0.000 in
23:19 40.0 °F 34.0 °F 30.2 in Calm     80% 0.000 in
23:24 39.0 °F 34.0 °F 30.3 in Calm     80% 0.000 in
23:29 39.0 °F 34.0 °F 30.3 in Calm     80% 0.000 in
23:34 39.0 °F 33.0 °F 30.3 in Calm     80% 0.000 in
23:39 39.0 °F 33.0 °F 30.3 in Calm     81% 0.000 in
23:44 39.0 °F 33.0 °F 30.3 in Calm     81% 0.000 in
23:49 39.0 °F 33.0 °F 30.3 in Calm     81% 0.000 in
23:54 38.0 °F 33.0 °F 30.3 in Calm     82% 0.000 in
23:59 38.0 °F 33.0 °F 30.3 in Calm     82% 0.000 in
East Ellijay Weather
Compliments of Weather Underground - 2 mb